createdAt,value
2023-03-12T00:00:04.607Z,-2.41
2023-03-12T00:04:09.690Z,-2.60
2023-03-12T00:08:13.846Z,-2.57
2023-03-12T00:12:16.824Z,-2.48
2023-03-12T00:16:20.588Z,-2.54
2023-03-12T00:20:26.385Z,-2.09
2023-03-12T00:24:29.667Z,-2.49
2023-03-12T00:28:33.102Z,-2.14
2023-03-12T00:32:36.981Z,-1.83
2023-03-12T00:36:41.938Z,-2.23
2023-03-12T00:40:45.727Z,-2.09
2023-03-12T00:44:48.674Z,-2.06
2023-03-12T00:48:51.829Z,-1.97
2023-03-12T00:52:56.550Z,-1.97
2023-03-12T00:56:59.684Z,-1.78
2023-03-12T01:01:02.831Z,-1.82
2023-03-12T01:05:06.995Z,-1.78
2023-03-12T01:09:11.635Z,-1.52
2023-03-12T01:13:14.465Z,-1.64
2023-03-12T01:17:17.407Z,-1.68
2023-03-12T01:21:20.412Z,-1.52
2023-03-12T01:25:25.273Z,-1.41
2023-03-12T01:29:28.552Z,-1.43
2023-03-12T01:33:31.522Z,-1.38
2023-03-12T01:37:35.377Z,-1.35
2023-03-12T01:41:40.056Z,-1.35
2023-03-12T01:46:06.818Z,-1.29
2023-03-12T01:50:10.783Z,-1.14
2023-03-12T01:54:17.960Z,-1.06
2023-03-12T01:58:23.081Z,-0.94
2023-03-12T02:02:28.890Z,-1.08
2023-03-12T02:06:36.546Z,-0.94
2023-03-12T02:10:39.798Z,-0.96
2023-03-12T02:14:44.026Z,-0.71
2023-03-12T02:18:48.647Z,-0.73
2023-03-12T02:22:53.362Z,-0.82
2023-03-12T02:26:58.600Z,-1.01
2023-03-12T02:31:05.060Z,-0.91
2023-03-12T02:35:08.611Z,-0.87
2023-03-12T02:39:12.876Z,-0.84
2023-03-12T02:43:20.685Z,-0.71
2023-03-12T02:47:24.066Z,-0.68
2023-03-12T02:51:27.200Z,-0.62
2023-03-12T02:55:30.460Z,-0.54
2023-03-12T02:59:35.194Z,-0.64
2023-03-12T03:03:38.432Z,-0.58
2023-03-12T03:07:41.633Z,-0.46
2023-03-12T03:11:44.839Z,-0.49
2023-03-12T03:15:49.465Z,-0.30
2023-03-12T03:19:53.011Z,-0.58
2023-03-12T03:23:56.168Z,-0.53
2023-03-12T03:27:59.583Z,-0.47
2023-03-12T03:32:04.143Z,-0.50
2023-03-12T03:36:08.737Z,-0.53
2023-03-12T03:40:12.583Z,-0.42
2023-03-12T03:44:15.421Z,-0.52
2023-03-12T03:48:19.496Z,-0.36
2023-03-12T03:52:22.424Z,-0.35
2023-03-12T03:56:25.812Z,-0.42
2023-03-12T04:00:29.085Z,-0.27
2023-03-12T04:04:33.533Z,-0.33
2023-03-12T04:08:37.882Z,-0.32
2023-03-12T04:12:41.159Z,-0.26
2023-03-12T04:16:44.444Z,-0.24
2023-03-12T04:20:48.879Z,-0.14
2023-03-12T04:24:51.881Z,-0.07
2023-03-12T04:28:55.278Z,-0.04
2023-03-12T04:32:58.501Z,-0.10
2023-03-12T04:37:03.698Z,-0.05
2023-03-12T04:41:08.572Z,-0.05
2023-03-12T04:45:13.397Z,-0.11
2023-03-12T04:49:16.773Z,-0.12
2023-03-12T04:53:21.740Z,-0.20
2023-03-12T04:57:24.936Z,-0.26
2023-03-12T05:01:29.963Z,-0.28
2023-03-12T05:05:33.294Z,-0.18
2023-03-12T05:09:37.897Z,-0.27
2023-03-12T05:13:41.584Z,-0.27
2023-03-12T05:17:44.793Z,-0.32
2023-03-12T05:21:48.069Z,-0.29
2023-03-12T05:25:52.732Z,-0.31
2023-03-12T05:29:55.997Z,-0.43
2023-03-12T05:33:59.289Z,-0.20
2023-03-12T05:38:02.501Z,-0.18
2023-03-12T05:42:07.184Z,-0.03
2023-03-12T05:46:11.140Z,-0.14
2023-03-12T05:50:14.125Z,-0.12
2023-03-12T05:54:17.124Z,-0.13
2023-03-12T05:58:21.714Z,-0.07
2023-03-12T06:02:24.500Z,-0.22
2023-03-12T06:06:27.427Z,-0.21
2023-03-12T06:10:30.442Z,-0.16
2023-03-12T06:14:34.661Z,-0.07
2023-03-12T06:18:37.522Z,-0.08
2023-03-12T06:22:40.601Z,-0.06
2023-03-12T06:26:43.475Z,-0.14
2023-03-12T06:30:47.887Z,-0.10
2023-03-12T06:34:50.803Z,-0.03
2023-03-12T06:38:56.610Z,0.01
2023-03-12T06:42:59.909Z,-0.10
2023-03-12T06:47:04.323Z,0.00
2023-03-12T06:51:07.870Z,0.00
2023-03-12T06:55:11.198Z,-0.04
2023-03-12T06:59:14.397Z,-0.04
2023-03-12T07:03:18.630Z,0.14
2023-03-12T07:07:21.653Z,0.22
2023-03-12T07:11:24.486Z,0.03
2023-03-12T07:15:29.541Z,0.22
2023-03-12T07:19:33.611Z,0.22
2023-03-12T07:23:36.816Z,0.27
2023-03-12T07:27:39.754Z,0.41
2023-03-12T07:31:43.249Z,0.33
2023-03-12T07:35:51.286Z,0.30
2023-03-12T07:39:54.977Z,0.33
2023-03-12T07:43:58.459Z,0.41
2023-03-12T07:48:01.922Z,0.47
2023-03-12T07:52:10.097Z,0.58
2023-03-12T07:56:13.575Z,0.47
2023-03-12T08:00:19.697Z,0.53
2023-03-12T08:04:23.586Z,0.58
2023-03-12T08:08:28.681Z,0.53
2023-03-12T08:12:32.214Z,0.73
2023-03-12T08:16:35.097Z,0.72
2023-03-12T08:20:38.281Z,0.74
2023-03-12T08:24:42.605Z,0.88
2023-03-12T08:28:45.922Z,0.96
2023-03-12T08:32:48.842Z,1.02
2023-03-12T08:36:52.121Z,0.77
2023-03-12T08:41:01.086Z,1.11
2023-03-12T08:45:06.017Z,1.20
2023-03-12T08:49:17.915Z,1.20
2023-03-12T08:53:21.097Z,1.28
2023-03-12T08:57:25.836Z,1.31
2023-03-12T09:01:28.704Z,1.16
2023-03-12T09:05:31.713Z,1.43
2023-03-12T09:09:34.765Z,1.49
2023-03-12T09:13:58.132Z,1.59
2023-03-12T09:18:02.414Z,1.67
2023-03-12T09:22:05.743Z,1.55
2023-03-12T09:26:10.628Z,1.51
2023-03-12T09:30:17.074Z,1.95
2023-03-12T09:34:19.909Z,2.09
2023-03-12T09:38:23.374Z,2.49
2023-03-12T09:42:29.203Z,2.16
2023-03-12T09:46:37.072Z,2.11
2023-03-12T09:50:44.254Z,2.21
2023-03-12T09:54:52.057Z,2.62
2023-03-12T09:58:56.399Z,2.78
2023-03-12T10:03:19.542Z,3.00
2023-03-12T10:07:28.061Z,3.18
2023-03-12T10:11:42.232Z,3.42
2023-03-12T10:15:54.005Z,3.27
2023-03-12T10:20:25.909Z,3.41
2023-03-12T10:24:38.398Z,3.88
2023-03-12T10:28:44.612Z,4.37
2023-03-12T10:32:49.775Z,4.01
2023-03-12T10:36:56.464Z,4.58
2023-03-12T10:40:59.341Z,5.20
2023-03-12T10:45:22.224Z,5.36
2023-03-12T10:49:30.483Z,5.16
2023-03-12T10:53:35.989Z,5.47
2023-03-12T10:57:41.259Z,6.22
2023-03-12T11:01:48.850Z,6.86
2023-03-12T11:05:54.257Z,7.30
2023-03-12T11:10:21.052Z,7.41
2023-03-12T11:14:25.642Z,7.60
2023-03-12T11:18:34.279Z,8.07
2023-03-12T11:22:37.158Z,8.27
2023-03-12T11:26:49.488Z,8.82
2023-03-12T11:30:54.822Z,9.12
2023-03-12T11:34:57.754Z,9.03
2023-03-12T11:39:04.570Z,10.15
2023-03-12T11:43:43.743Z,10.09
2023-03-12T11:47:57.651Z,10.09
2023-03-12T11:52:04.844Z,10.05
2023-03-12T11:56:23.162Z,10.08
2023-03-12T12:00:34.783Z,10.37
2023-03-12T12:04:52.516Z,10.66
2023-03-12T12:09:09.800Z,11.48
2023-03-12T12:13:18.460Z,11.30
2023-03-12T12:17:29.589Z,11.27
2023-03-12T12:21:46.944Z,11.11
2023-03-12T12:26:10.404Z,11.38
2023-03-12T12:30:20.689Z,11.34
2023-03-12T12:34:47.239Z,12.02
2023-03-12T12:38:54.578Z,11.84
2023-03-12T12:43:03.675Z,11.99
2023-03-12T12:47:08.168Z,12.29
2023-03-12T12:51:13.108Z,12.30
2023-03-12T12:55:21.666Z,11.71
2023-03-12T12:59:33.256Z,11.24
2023-03-12T13:03:36.863Z,11.45
2023-03-12T13:07:41.005Z,11.19
2023-03-12T13:11:46.932Z,11.35
2023-03-12T13:15:49.867Z,11.55
2023-03-12T13:20:01.421Z,11.57
2023-03-12T13:24:17.910Z,12.42
2023-03-12T13:28:37.136Z,12.39
2023-03-12T13:33:12.371Z,12.66
2023-03-12T13:37:30.886Z,12.39
2023-03-12T13:41:38.178Z,11.89
2023-03-12T13:45:57.543Z,11.75
2023-03-12T13:50:02.130Z,11.49
2023-03-12T13:54:05.251Z,11.83
2023-03-12T13:58:11.515Z,11.65
2023-03-12T14:02:23.089Z,11.45
2023-03-12T14:06:30.526Z,11.45
2023-03-12T14:10:41.241Z,11.44
2023-03-12T14:14:51.569Z,11.60
2023-03-12T14:18:54.834Z,11.59
2023-03-12T14:23:01.864Z,11.09
2023-03-12T14:27:06.627Z,10.90
2023-03-12T14:31:14.093Z,11.00
2023-03-12T14:35:21.816Z,10.99
2023-03-12T14:39:29.201Z,11.06
2023-03-12T14:43:33.845Z,11.15
2023-03-12T14:47:42.363Z,10.86
2023-03-12T14:51:45.318Z,10.97
2023-03-12T14:55:48.189Z,10.92
2023-03-12T14:59:53.474Z,11.10
2023-03-12T15:04:01.263Z,11.19
2023-03-12T15:08:04.958Z,11.19
2023-03-12T15:12:09.670Z,11.09
2023-03-12T15:16:12.552Z,10.92
2023-03-12T15:20:17.872Z,10.75
2023-03-12T15:24:21.142Z,10.84
2023-03-12T15:28:29.565Z,10.56
2023-03-12T15:32:32.875Z,10.63
2023-03-12T15:36:37.092Z,10.73
2023-03-12T15:40:40.266Z,10.82
2023-03-12T15:44:46.104Z,10.60
2023-03-12T15:48:50.358Z,10.72
2023-03-12T15:53:02.480Z,10.64
2023-03-12T15:57:22.480Z,10.74
2023-03-12T16:01:28.201Z,10.64
2023-03-12T16:05:34.211Z,10.58
2023-03-12T16:09:38.446Z,10.61
2023-03-12T16:13:42.044Z,10.59
2023-03-12T16:17:44.661Z,10.57
2023-03-12T16:21:47.408Z,10.51
2023-03-12T16:25:53.168Z,10.51
2023-03-12T16:29:55.963Z,10.34
2023-03-12T16:33:59.052Z,10.44
2023-03-12T16:38:02.176Z,10.43
2023-03-12T16:42:17.086Z,10.41
2023-03-12T16:46:21.836Z,10.34
2023-03-12T16:50:26.392Z,10.27
2023-03-12T16:54:29.378Z,10.30
2023-03-12T16:58:33.641Z,10.22
2023-03-12T17:02:37.004Z,10.24
2023-03-12T17:06:40.462Z,10.22
2023-03-12T17:10:43.572Z,10.16
2023-03-12T17:14:48.242Z,10.22
2023-03-12T17:18:51.232Z,10.12
2023-03-12T17:22:54.286Z,9.89
2023-03-12T17:26:58.156Z,10.03
2023-03-12T17:31:02.757Z,10.10
2023-03-12T17:35:06.886Z,10.05
2023-03-12T17:39:09.604Z,9.91
2023-03-12T17:43:13.646Z,9.84
2023-03-12T17:47:17.859Z,9.89
2023-03-12T17:51:22.787Z,9.78
2023-03-12T17:55:26.709Z,9.91
2023-03-12T17:59:29.452Z,9.82
2023-03-12T18:03:34.202Z,9.88
2023-03-12T18:07:37.100Z,9.87
2023-03-12T18:11:39.915Z,9.87
2023-03-12T18:15:42.939Z,9.81
2023-03-12T18:19:47.615Z,9.78
2023-03-12T18:23:50.956Z,9.82
2023-03-12T18:27:56.636Z,9.86
2023-03-12T18:31:59.993Z,9.88
2023-03-12T18:36:05.161Z,9.99
2023-03-12T18:40:08.992Z,9.70
2023-03-12T18:44:13.152Z,9.71
2023-03-12T18:48:16.444Z,9.78
2023-03-12T18:52:20.792Z,9.69
2023-03-12T18:56:24.013Z,9.57
2023-03-12T19:00:26.878Z,9.62
2023-03-12T19:04:29.898Z,9.52
2023-03-12T19:08:35.111Z,9.53
2023-03-12T19:12:51.661Z,9.62
2023-03-12T19:16:55.397Z,9.40
2023-03-12T19:20:58.350Z,9.51
2023-03-12T19:25:02.774Z,9.50
2023-03-12T19:29:05.403Z,9.52
2023-03-12T19:33:09.108Z,9.41
2023-03-12T19:37:12.132Z,9.41
2023-03-12T19:41:16.684Z,9.40
2023-03-12T19:45:19.561Z,9.26
2023-03-12T19:49:23.117Z,9.24
2023-03-12T19:53:26.366Z,9.16
2023-03-12T19:57:30.619Z,9.22
2023-03-12T20:01:33.834Z,9.21
2023-03-12T20:05:36.783Z,9.01
2023-03-12T20:09:39.761Z,9.14
2023-03-12T20:13:44.491Z,9.13
2023-03-12T20:17:47.843Z,9.21
2023-03-12T20:21:50.624Z,9.19
2023-03-12T20:25:54.116Z,8.99
2023-03-12T20:29:59.136Z,8.91
2023-03-12T20:34:02.356Z,8.99
2023-03-12T20:38:05.588Z,8.90
2023-03-12T20:42:08.254Z,8.94
2023-03-12T20:46:13.850Z,8.58
2023-03-12T20:50:17.353Z,8.42
2023-03-12T20:54:20.251Z,8.23
2023-03-12T20:58:24.334Z,8.21
2023-03-12T21:02:29.914Z,8.21
2023-03-12T21:06:32.901Z,8.18
2023-03-12T21:10:37.042Z,7.85
2023-03-12T21:14:41.944Z,7.80
2023-03-12T21:18:46.264Z,7.70
2023-03-12T21:22:50.272Z,7.84
2023-03-12T21:26:54.249Z,8.04
2023-03-12T21:30:57.152Z,7.89
2023-03-12T21:35:02.320Z,7.78
2023-03-12T21:39:08.517Z,7.99
2023-03-12T21:43:11.225Z,7.99
2023-03-12T21:47:13.980Z,8.12
2023-03-12T21:51:19.203Z,8.19
2023-03-12T21:55:22.056Z,8.03
2023-03-12T21:59:25.415Z,7.88
2023-03-12T22:03:28.196Z,8.25
2023-03-12T22:07:32.699Z,8.25
2023-03-12T22:11:35.662Z,8.49
2023-03-12T22:15:38.618Z,8.41
2023-03-12T22:19:42.217Z,8.51
2023-03-12T22:23:48.326Z,8.69
2023-03-12T22:27:51.134Z,8.79
2023-03-12T22:31:54.262Z,8.72
2023-03-12T22:35:57.085Z,8.83
2023-03-12T22:40:06.837Z,8.96
2023-03-12T22:44:10.489Z,8.91
2023-03-12T22:48:13.229Z,8.91
2023-03-12T22:52:18.145Z,8.92
2023-03-12T22:56:25.276Z,8.68
2023-03-12T23:00:28.161Z,8.66
2023-03-12T23:04:31.049Z,8.81
2023-03-12T23:08:33.862Z,8.69
2023-03-12T23:12:38.037Z,8.67
2023-03-12T23:16:41.017Z,8.72
2023-03-12T23:20:44.034Z,8.76
2023-03-12T23:24:46.910Z,8.73
2023-03-12T23:28:53.353Z,8.72
2023-03-12T23:32:56.868Z,8.88
2023-03-12T23:36:59.896Z,8.82
2023-03-12T23:41:03.024Z,8.98
2023-03-12T23:45:09.360Z,8.95
2023-03-12T23:49:12.868Z,8.94
2023-03-12T23:53:15.786Z,8.92
2023-03-12T23:57:18.466Z,8.94
